sensor_id;sensor_type;location;lat;lon;timestamp;P1;durP1;ratioP1;P2;durP2;ratioP2
14883;SDS011;7534;50.762;7.000;2022-07-29T00:00:53;5.35;;;1.58;;
14883;SDS011;7534;50.762;7.000;2022-07-29T00:03:18;2.22;;;1.70;;
14883;SDS011;7534;50.762;7.000;2022-07-29T00:05:44;2.70;;;1.83;;
14883;SDS011;7534;50.762;7.000;2022-07-29T00:08:10;4.28;;;1.88;;
14883;SDS011;7534;50.762;7.000;2022-07-29T00:10:35;3.55;;;1.70;;
14883;SDS011;7534;50.762;7.000;2022-07-29T00:13:01;4.25;;;1.90;;
14883;SDS011;7534;50.762;7.000;2022-07-29T00:15:27;3.47;;;1.75;;
14883;SDS011;7534;50.762;7.000;2022-07-29T00:17:53;3.35;;;1.77;;
14883;SDS011;7534;50.762;7.000;2022-07-29T00:20:19;2.63;;;1.90;;
14883;SDS011;7534;50.762;7.000;2022-07-29T00:22:45;3.30;;;1.65;;
14883;SDS011;7534;50.762;7.000;2022-07-29T00:25:11;3.22;;;1.70;;
14883;SDS011;7534;50.762;7.000;2022-07-29T00:27:38;2.70;;;1.77;;
14883;SDS011;7534;50.762;7.000;2022-07-29T00:30:04;4.75;;;1.70;;
14883;SDS011;7534;50.762;7.000;2022-07-29T00:32:31;4.40;;;1.77;;
14883;SDS011;7534;50.762;7.000;2022-07-29T00:34:57;2.67;;;1.77;;
14883;SDS011;7534;50.762;7.000;2022-07-29T00:37:41;2.10;;;1.40;;
14883;SDS011;7534;50.762;7.000;2022-07-29T00:40:07;2.47;;;1.60;;
14883;SDS011;7534;50.762;7.000;2022-07-29T00:42:46;2.22;;;1.50;;
14883;SDS011;7534;50.762;7.000;2022-07-29T00:45:15;3.10;;;1.50;;
14883;SDS011;7534;50.762;7.000;2022-07-29T00:47:41;4.47;;;1.88;;
14883;SDS011;7534;50.762;7.000;2022-07-29T00:50:07;2.55;;;1.88;;
14883;SDS011;7534;50.762;7.000;2022-07-29T00:52:37;3.30;;;1.90;;
14883;SDS011;7534;50.762;7.000;2022-07-29T00:55:05;3.45;;;1.80;;
14883;SDS011;7534;50.762;7.000;2022-07-29T00:57:35;2.47;;;1.88;;
14883;SDS011;7534;50.762;7.000;2022-07-29T01:00:04;3.05;;;2.05;;
14883;SDS011;7534;50.762;7.000;2022-07-29T01:02:36;3.10;;;1.75;;
14883;SDS011;7534;50.762;7.000;2022-07-29T01:05:02;3.38;;;1.80;;
14883;SDS011;7534;50.762;7.000;2022-07-29T01:07:30;3.38;;;2.10;;
14883;SDS011;7534;50.762;7.000;2022-07-29T01:10:01;2.22;;;1.83;;
14883;SDS011;7534;50.762;7.000;2022-07-29T01:12:33;3.92;;;1.85;;
14883;SDS011;7534;50.762;7.000;2022-07-29T01:15:03;3.55;;;1.90;;
14883;SDS011;7534;50.762;7.000;2022-07-29T01:17:38;4.22;;;2.40;;
14883;SDS011;7534;50.762;7.000;2022-07-29T01:20:31;1.77;;;1.60;;
14883;SDS011;7534;50.762;7.000;2022-07-29T01:23:48;2.53;;;1.80;;
14883;SDS011;7534;50.762;7.000;2022-07-29T01:27:04;2.05;;;1.70;;
14883;SDS011;7534;50.762;7.000;2022-07-29T01:30:03;4.40;;;1.80;;
14883;SDS011;7534;50.762;7.000;2022-07-29T01:32:31;2.15;;;1.73;;
14883;SDS011;7534;50.762;7.000;2022-07-29T01:35:03;3.25;;;1.75;;
14883;SDS011;7534;50.762;7.000;2022-07-29T01:40:18;3.85;;;1.70;;
14883;SDS011;7534;50.762;7.000;2022-07-29T01:42:54;3.08;;;2.00;;
14883;SDS011;7534;50.762;7.000;2022-07-29T01:45:26;3.58;;;1.83;;
14883;SDS011;7534;50.762;7.000;2022-07-29T01:48:24;2.30;;;1.80;;
14883;SDS011;7534;50.762;7.000;2022-07-29T01:51:04;2.30;;;1.80;;
14883;SDS011;7534;50.762;7.000;2022-07-29T01:53:43;1.90;;;1.70;;
14883;SDS011;7534;50.762;7.000;2022-07-29T01:56:35;3.72;;;2.30;;
14883;SDS011;7534;50.762;7.000;2022-07-29T01:59:04;5.22;;;1.90;;
14883;SDS011;7534;50.762;7.000;2022-07-29T02:01:33;2.35;;;1.70;;
14883;SDS011;7534;50.762;7.000;2022-07-29T02:04:03;3.65;;;2.00;;
14883;SDS011;7534;50.762;7.000;2022-07-29T02:06:33;2.35;;;1.80;;
14883;SDS011;7534;50.762;7.000;2022-07-29T02:09:02;2.08;;;1.80;;
14883;SDS011;7534;50.762;7.000;2022-07-29T02:11:31;1.98;;;1.77;;
14883;SDS011;7534;50.762;7.000;2022-07-29T02:14:00;2.22;;;1.83;;
14883;SDS011;7534;50.762;7.000;2022-07-29T02:16:29;2.63;;;2.10;;
14883;SDS011;7534;50.762;7.000;2022-07-29T02:18:57;1.98;;;1.80;;
14883;SDS011;7534;50.762;7.000;2022-07-29T02:21:26;3.13;;;1.98;;
14883;SDS011;7534;50.762;7.000;2022-07-29T02:23:54;4.65;;;1.90;;
14883;SDS011;7534;50.762;7.000;2022-07-29T02:26:25;3.33;;;2.00;;
14883;SDS011;7534;50.762;7.000;2022-07-29T02:28:54;3.33;;;2.22;;
14883;SDS011;7534;50.762;7.000;2022-07-29T02:31:24;4.55;;;2.25;;
14883;SDS011;7534;50.762;7.000;2022-07-29T02:33:57;4.20;;;2.10;;
14883;SDS011;7534;50.762;7.000;2022-07-29T02:36:24;1.98;;;1.73;;
14883;SDS011;7534;50.762;7.000;2022-07-29T02:38:51;3.43;;;2.00;;
14883;SDS011;7534;50.762;7.000;2022-07-29T02:41:42;2.73;;;2.00;;
14883;SDS011;7534;50.762;7.000;2022-07-29T02:44:14;2.70;;;2.10;;
14883;SDS011;7534;50.762;7.000;2022-07-29T02:46:45;2.78;;;2.03;;
14883;SDS011;7534;50.762;7.000;2022-07-29T02:49:37;4.77;;;2.40;;
14883;SDS011;7534;50.762;7.000;2022-07-29T02:52:31;2.73;;;1.80;;
14883;SDS011;7534;50.762;7.000;2022-07-29T02:57:52;3.50;;;1.98;;
14883;SDS011;7534;50.762;7.000;2022-07-29T03:00:30;2.78;;;2.00;;
14883;SDS011;7534;50.762;7.000;2022-07-29T03:03:01;2.20;;;2.00;;
14883;SDS011;7534;50.762;7.000;2022-07-29T03:05:36;4.50;;;2.13;;
14883;SDS011;7534;50.762;7.000;2022-07-29T03:08:03;2.40;;;1.90;;
14883;SDS011;7534;50.762;7.000;2022-07-29T03:10:32;3.42;;;2.42;;
14883;SDS011;7534;50.762;7.000;2022-07-29T03:12:59;2.83;;;1.90;;
14883;SDS011;7534;50.762;7.000;2022-07-29T03:15:26;3.38;;;2.42;;
14883;SDS011;7534;50.762;7.000;2022-07-29T03:17:52;5.10;;;2.20;;
14883;SDS011;7534;50.762;7.000;2022-07-29T03:20:19;2.88;;;2.10;;
14883;SDS011;7534;50.762;7.000;2022-07-29T03:22:45;2.67;;;2.08;;
14883;SDS011;7534;50.762;7.000;2022-07-29T03:25:14;3.33;;;2.10;;
14883;SDS011;7534;50.762;7.000;2022-07-29T03:27:43;3.13;;;2.10;;
14883;SDS011;7534;50.762;7.000;2022-07-29T03:30:10;4.35;;;2.10;;
14883;SDS011;7534;50.762;7.000;2022-07-29T03:32:37;2.50;;;2.00;;
14883;SDS011;7534;50.762;7.000;2022-07-29T03:35:05;2.57;;;2.37;;
14883;SDS011;7534;50.762;7.000;2022-07-29T03:37:32;4.88;;;2.40;;
14883;SDS011;7534;50.762;7.000;2022-07-29T03:39:58;3.15;;;2.10;;
14883;SDS011;7534;50.762;7.000;2022-07-29T03:42:28;4.77;;;2.20;;
14883;SDS011;7534;50.762;7.000;2022-07-29T03:44:58;5.43;;;2.53;;
14883;SDS011;7534;50.762;7.000;2022-07-29T03:47:30;2.33;;;2.00;;
14883;SDS011;7534;50.762;7.000;2022-07-29T03:50:05;3.72;;;2.10;;
14883;SDS011;7534;50.762;7.000;2022-07-29T03:52:33;3.87;;;2.17;;
14883;SDS011;7534;50.762;7.000;2022-07-29T03:55:00;3.33;;;2.20;;
14883;SDS011;7534;50.762;7.000;2022-07-29T03:57:28;2.55;;;1.90;;
14883;SDS011;7534;50.762;7.000;2022-07-29T03:59:55;4.33;;;2.37;;
14883;SDS011;7534;50.762;7.000;2022-07-29T04:02:22;3.80;;;2.40;;
14883;SDS011;7534;50.762;7.000;2022-07-29T04:04:50;2.77;;;2.27;;
14883;SDS011;7534;50.762;7.000;2022-07-29T04:07:17;4.43;;;2.20;;
14883;SDS011;7534;50.762;7.000;2022-07-29T04:09:43;2.60;;;2.40;;
14883;SDS011;7534;50.762;7.000;2022-07-29T04:12:09;4.50;;;2.30;;
14883;SDS011;7534;50.762;7.000;2022-07-29T04:14:35;5.15;;;2.15;;
14883;SDS011;7534;50.762;7.000;2022-07-29T04:17:01;5.90;;;2.30;;
14883;SDS011;7534;50.762;7.000;2022-07-29T04:19:28;3.15;;;2.20;;
14883;SDS011;7534;50.762;7.000;2022-07-29T04:21:55;4.37;;;2.17;;
14883;SDS011;7534;50.762;7.000;2022-07-29T04:24:21;5.13;;;2.30;;
14883;SDS011;7534;50.762;7.000;2022-07-29T04:26:47;4.10;;;2.55;;
14883;SDS011;7534;50.762;7.000;2022-07-29T04:29:14;4.55;;;2.28;;
14883;SDS011;7534;50.762;7.000;2022-07-29T04:31:40;3.53;;;2.13;;
14883;SDS011;7534;50.762;7.000;2022-07-29T04:34:06;4.03;;;2.30;;
14883;SDS011;7534;50.762;7.000;2022-07-29T04:36:33;3.92;;;2.20;;
14883;SDS011;7534;50.762;7.000;2022-07-29T04:38:59;4.45;;;2.28;;
14883;SDS011;7534;50.762;7.000;2022-07-29T04:41:26;3.42;;;2.20;;
14883;SDS011;7534;50.762;7.000;2022-07-29T04:43:55;5.18;;;2.35;;
14883;SDS011;7534;50.762;7.000;2022-07-29T04:46:21;5.00;;;1.90;;
14883;SDS011;7534;50.762;7.000;2022-07-29T04:48:47;4.60;;;2.20;;
14883;SDS011;7534;50.762;7.000;2022-07-29T04:51:13;4.20;;;2.20;;
14883;SDS011;7534;50.762;7.000;2022-07-29T04:53:40;6.88;;;1.92;;
14883;SDS011;7534;50.762;7.000;2022-07-29T04:56:06;4.95;;;2.17;;
14883;SDS011;7534;50.762;7.000;2022-07-29T04:58:33;5.90;;;2.10;;
14883;SDS011;7534;50.762;7.000;2022-07-29T05:01:00;4.20;;;2.30;;
14883;SDS011;7534;50.762;7.000;2022-07-29T05:03:26;5.07;;;2.10;;
14883;SDS011;7534;50.762;7.000;2022-07-29T05:05:52;2.38;;;1.90;;
14883;SDS011;7534;50.762;7.000;2022-07-29T05:08:18;3.88;;;2.38;;
14883;SDS011;7534;50.762;7.000;2022-07-29T05:10:43;3.78;;;1.85;;
14883;SDS011;7534;50.762;7.000;2022-07-29T05:13:10;3.15;;;2.00;;
14883;SDS011;7534;50.762;7.000;2022-07-29T05:15:36;6.38;;;2.20;;
14883;SDS011;7534;50.762;7.000;2022-07-29T05:18:02;6.15;;;2.45;;
14883;SDS011;7534;50.762;7.000;2022-07-29T05:20:29;4.43;;;2.00;;
14883;SDS011;7534;50.762;7.000;2022-07-29T05:22:56;3.22;;;2.00;;
14883;SDS011;7534;50.762;7.000;2022-07-29T05:25:23;4.95;;;2.20;;
14883;SDS011;7534;50.762;7.000;2022-07-29T05:27:52;3.20;;;1.90;;
14883;SDS011;7534;50.762;7.000;2022-07-29T05:30:19;3.72;;;1.92;;
14883;SDS011;7534;50.762;7.000;2022-07-29T05:32:46;3.08;;;1.80;;
14883;SDS011;7534;50.762;7.000;2022-07-29T05:35:12;3.22;;;2.03;;
14883;SDS011;7534;50.762;7.000;2022-07-29T05:37:39;3.65;;;2.25;;
14883;SDS011;7534;50.762;7.000;2022-07-29T05:40:06;2.85;;;2.08;;
14883;SDS011;7534;50.762;7.000;2022-07-29T05:42:32;4.32;;;2.10;;
14883;SDS011;7534;50.762;7.000;2022-07-29T05:44:58;3.50;;;2.47;;
14883;SDS011;7534;50.762;7.000;2022-07-29T05:47:25;5.53;;;2.42;;
14883;SDS011;7534;50.762;7.000;2022-07-29T05:49:51;3.75;;;2.10;;
14883;SDS011;7534;50.762;7.000;2022-07-29T05:52:17;3.72;;;2.25;;
14883;SDS011;7534;50.762;7.000;2022-07-29T05:54:43;5.95;;;2.50;;
14883;SDS011;7534;50.762;7.000;2022-07-29T05:57:15;7.95;;;2.40;;
14883;SDS011;7534;50.762;7.000;2022-07-29T05:59:43;4.95;;;2.20;;
14883;SDS011;7534;50.762;7.000;2022-07-29T06:02:09;5.00;;;2.28;;
14883;SDS011;7534;50.762;7.000;2022-07-29T06:04:36;4.82;;;2.28;;
14883;SDS011;7534;50.762;7.000;2022-07-29T06:07:01;5.75;;;2.28;;
14883;SDS011;7534;50.762;7.000;2022-07-29T06:09:28;4.97;;;2.10;;
14883;SDS011;7534;50.762;7.000;2022-07-29T06:11:54;4.80;;;2.13;;
14883;SDS011;7534;50.762;7.000;2022-07-29T06:14:19;5.88;;;2.40;;
14883;SDS011;7534;50.762;7.000;2022-07-29T06:16:45;4.05;;;2.00;;
14883;SDS011;7534;50.762;7.000;2022-07-29T06:19:11;7.05;;;2.25;;
14883;SDS011;7534;50.762;7.000;2022-07-29T06:21:40;3.55;;;2.08;;
14883;SDS011;7534;50.762;7.000;2022-07-29T06:24:10;8.10;;;2.38;;
14883;SDS011;7534;50.762;7.000;2022-07-29T06:26:38;7.88;;;2.20;;
14883;SDS011;7534;50.762;7.000;2022-07-29T06:29:05;2.72;;;1.90;;
14883;SDS011;7534;50.762;7.000;2022-07-29T06:31:31;5.75;;;2.40;;
14883;SDS011;7534;50.762;7.000;2022-07-29T06:33:57;5.93;;;2.55;;
14883;SDS011;7534;50.762;7.000;2022-07-29T06:36:23;4.60;;;2.03;;
14883;SDS011;7534;50.762;7.000;2022-07-29T06:38:49;3.85;;;2.20;;
14883;SDS011;7534;50.762;7.000;2022-07-29T06:41:14;5.80;;;2.17;;
14883;SDS011;7534;50.762;7.000;2022-07-29T06:43:41;4.83;;;2.67;;
14883;SDS011;7534;50.762;7.000;2022-07-29T06:46:10;2.75;;;2.15;;
14883;SDS011;7534;50.762;7.000;2022-07-29T06:48:41;7.82;;;2.55;;
14883;SDS011;7534;50.762;7.000;2022-07-29T06:51:08;4.28;;;2.08;;
14883;SDS011;7534;50.762;7.000;2022-07-29T06:53:35;5.40;;;2.40;;
14883;SDS011;7534;50.762;7.000;2022-07-29T06:56:01;3.00;;;2.10;;
14883;SDS011;7534;50.762;7.000;2022-07-29T06:58:29;5.60;;;2.30;;
14883;SDS011;7534;50.762;7.000;2022-07-29T07:00:55;5.32;;;2.30;;
14883;SDS011;7534;50.762;7.000;2022-07-29T07:03:22;4.20;;;2.22;;
14883;SDS011;7534;50.762;7.000;2022-07-29T07:05:49;4.85;;;2.05;;
14883;SDS011;7534;50.762;7.000;2022-07-29T07:08:16;3.78;;;2.20;;
14883;SDS011;7534;50.762;7.000;2022-07-29T07:10:42;4.93;;;2.25;;
14883;SDS011;7534;50.762;7.000;2022-07-29T07:13:08;4.75;;;2.20;;
14883;SDS011;7534;50.762;7.000;2022-07-29T07:15:35;4.70;;;2.30;;
14883;SDS011;7534;50.762;7.000;2022-07-29T07:18:02;5.03;;;2.30;;
14883;SDS011;7534;50.762;7.000;2022-07-29T07:20:30;4.38;;;2.30;;
14883;SDS011;7534;50.762;7.000;2022-07-29T07:22:57;4.38;;;2.33;;
14883;SDS011;7534;50.762;7.000;2022-07-29T07:25:23;3.40;;;2.50;;
14883;SDS011;7534;50.762;7.000;2022-07-29T07:27:49;2.92;;;2.25;;
14883;SDS011;7534;50.762;7.000;2022-07-29T07:30:15;5.18;;;2.70;;
14883;SDS011;7534;50.762;7.000;2022-07-29T07:32:40;5.38;;;2.40;;
14883;SDS011;7534;50.762;7.000;2022-07-29T07:35:07;3.13;;;2.30;;
14883;SDS011;7534;50.762;7.000;2022-07-29T07:37:34;3.78;;;2.28;;
14883;SDS011;7534;50.762;7.000;2022-07-29T07:40:00;5.93;;;2.65;;
14883;SDS011;7534;50.762;7.000;2022-07-29T07:42:28;4.32;;;2.20;;
14883;SDS011;7534;50.762;7.000;2022-07-29T07:44:54;8.65;;;3.00;;
14883;SDS011;7534;50.762;7.000;2022-07-29T07:47:19;8.43;;;3.10;;
14883;SDS011;7534;50.762;7.000;2022-07-29T07:49:51;5.93;;;2.80;;
14883;SDS011;7534;50.762;7.000;2022-07-29T07:52:18;6.13;;;2.65;;
14883;SDS011;7534;50.762;7.000;2022-07-29T07:54:48;6.22;;;3.00;;
14883;SDS011;7534;50.762;7.000;2022-07-29T07:57:15;4.45;;;2.92;;
14883;SDS011;7534;50.762;7.000;2022-07-29T07:59:41;4.88;;;2.47;;
14883;SDS011;7534;50.762;7.000;2022-07-29T08:02:07;6.47;;;2.70;;
14883;SDS011;7534;50.762;7.000;2022-07-29T08:04:34;7.50;;;3.22;;
14883;SDS011;7534;50.762;7.000;2022-07-29T08:07:00;7.30;;;2.97;;
14883;SDS011;7534;50.762;7.000;2022-07-29T08:09:28;8.93;;;3.47;;
14883;SDS011;7534;50.762;7.000;2022-07-29T08:11:54;4.90;;;3.00;;
14883;SDS011;7534;50.762;7.000;2022-07-29T08:14:20;5.85;;;3.03;;
14883;SDS011;7534;50.762;7.000;2022-07-29T08:16:46;6.80;;;2.95;;
14883;SDS011;7534;50.762;7.000;2022-07-29T08:19:12;4.97;;;2.72;;
14883;SDS011;7534;50.762;7.000;2022-07-29T08:21:39;4.85;;;2.80;;
14883;SDS011;7534;50.762;7.000;2022-07-29T08:24:06;6.78;;;2.85;;
14883;SDS011;7534;50.762;7.000;2022-07-29T08:26:51;4.50;;;2.70;;
14883;SDS011;7534;50.762;7.000;2022-07-29T08:29:17;7.07;;;2.72;;
14883;SDS011;7534;50.762;7.000;2022-07-29T08:31:42;5.28;;;2.63;;
14883;SDS011;7534;50.762;7.000;2022-07-29T08:34:08;4.90;;;2.85;;
14883;SDS011;7534;50.762;7.000;2022-07-29T08:36:34;7.13;;;2.67;;
14883;SDS011;7534;50.762;7.000;2022-07-29T08:39:00;7.03;;;3.30;;
14883;SDS011;7534;50.762;7.000;2022-07-29T08:41:28;5.95;;;2.85;;
14883;SDS011;7534;50.762;7.000;2022-07-29T08:43:54;4.82;;;3.00;;
14883;SDS011;7534;50.762;7.000;2022-07-29T08:46:20;4.40;;;3.25;;
14883;SDS011;7534;50.762;7.000;2022-07-29T08:48:46;6.68;;;3.25;;
14883;SDS011;7534;50.762;7.000;2022-07-29T08:51:14;4.80;;;3.00;;
14883;SDS011;7534;50.762;7.000;2022-07-29T08:53:43;6.20;;;3.17;;
14883;SDS011;7534;50.762;7.000;2022-07-29T08:56:12;7.05;;;3.13;;
14883;SDS011;7534;50.762;7.000;2022-07-29T08:58:39;5.65;;;3.15;;
14883;SDS011;7534;50.762;7.000;2022-07-29T09:01:06;7.05;;;3.13;;
14883;SDS011;7534;50.762;7.000;2022-07-29T09:03:36;5.32;;;3.22;;
14883;SDS011;7534;50.762;7.000;2022-07-29T09:06:04;4.57;;;2.97;;
14883;SDS011;7534;50.762;7.000;2022-07-29T09:08:31;6.20;;;3.30;;
14883;SDS011;7534;50.762;7.000;2022-07-29T09:10:57;4.50;;;3.47;;
14883;SDS011;7534;50.762;7.000;2022-07-29T09:13:25;4.38;;;2.90;;
14883;SDS011;7534;50.762;7.000;2022-07-29T09:15:52;12.45;;;3.20;;
14883;SDS011;7534;50.762;7.000;2022-07-29T09:21:09;6.03;;;3.13;;
14883;SDS011;7534;50.762;7.000;2022-07-29T09:24:09;5.25;;;3.00;;
14883;SDS011;7534;50.762;7.000;2022-07-29T09:26:38;5.05;;;3.35;;
14883;SDS011;7534;50.762;7.000;2022-07-29T09:29:11;6.90;;;3.47;;
14883;SDS011;7534;50.762;7.000;2022-07-29T09:31:43;3.78;;;2.88;;
14883;SDS011;7534;50.762;7.000;2022-07-29T09:34:13;5.82;;;2.97;;
14883;SDS011;7534;50.762;7.000;2022-07-29T09:36:43;5.25;;;2.92;;
14883;SDS011;7534;50.762;7.000;2022-07-29T09:39:12;5.03;;;2.97;;
14883;SDS011;7534;50.762;7.000;2022-07-29T09:41:46;4.57;;;3.20;;
14883;SDS011;7534;50.762;7.000;2022-07-29T09:44:18;5.97;;;3.38;;
14883;SDS011;7534;50.762;7.000;2022-07-29T09:47:01;5.32;;;3.20;;
14883;SDS011;7534;50.762;7.000;2022-07-29T09:49:35;5.78;;;3.58;;
14883;SDS011;7534;50.762;7.000;2022-07-29T09:52:18;4.60;;;3.10;;
14883;SDS011;7534;50.762;7.000;2022-07-29T09:54:46;4.25;;;3.10;;
14883;SDS011;7534;50.762;7.000;2022-07-29T09:57:22;5.13;;;3.00;;
14883;SDS011;7534;50.762;7.000;2022-07-29T09:59:58;5.35;;;3.22;;
14883;SDS011;7534;50.762;7.000;2022-07-29T10:02:33;4.85;;;3.35;;
14883;SDS011;7534;50.762;7.000;2022-07-29T10:05:02;4.97;;;3.63;;
14883;SDS011;7534;50.762;7.000;2022-07-29T10:07:53;3.80;;;3.22;;
14883;SDS011;7534;50.762;7.000;2022-07-29T10:10:25;5.18;;;3.10;;
14883;SDS011;7534;50.762;7.000;2022-07-29T10:12:57;4.63;;;3.20;;
14883;SDS011;7534;50.762;7.000;2022-07-29T10:15:38;5.90;;;3.40;;
14883;SDS011;7534;50.762;7.000;2022-07-29T10:18:09;4.43;;;3.03;;
14883;SDS011;7534;50.762;7.000;2022-07-29T10:20:42;5.20;;;3.15;;
14883;SDS011;7534;50.762;7.000;2022-07-29T10:23:08;5.18;;;3.38;;
14883;SDS011;7534;50.762;7.000;2022-07-29T10:25:39;5.32;;;2.88;;
14883;SDS011;7534;50.762;7.000;2022-07-29T10:28:05;6.05;;;3.00;;
14883;SDS011;7534;50.762;7.000;2022-07-29T10:30:31;3.10;;;2.80;;
14883;SDS011;7534;50.762;7.000;2022-07-29T10:35:59;3.97;;;2.92;;
14883;SDS011;7534;50.762;7.000;2022-07-29T10:42:19;5.70;;;3.10;;
14883;SDS011;7534;50.762;7.000;2022-07-29T10:44:49;4.30;;;3.40;;
14883;SDS011;7534;50.762;7.000;2022-07-29T10:47:24;4.07;;;2.83;;
14883;SDS011;7534;50.762;7.000;2022-07-29T10:50:02;3.42;;;2.90;;
14883;SDS011;7534;50.762;7.000;2022-07-29T10:55:39;5.18;;;3.28;;
14883;SDS011;7534;50.762;7.000;2022-07-29T10:58:25;5.45;;;3.03;;
14883;SDS011;7534;50.762;7.000;2022-07-29T11:00:52;5.72;;;3.03;;
14883;SDS011;7534;50.762;7.000;2022-07-29T11:06:16;4.40;;;2.47;;
14883;SDS011;7534;50.762;7.000;2022-07-29T11:08:44;4.30;;;2.70;;
14883;SDS011;7534;50.762;7.000;2022-07-29T11:16:15;4.63;;;2.70;;
14883;SDS011;7534;50.762;7.000;2022-07-29T11:21:36;4.22;;;2.80;;
14883;SDS011;7534;50.762;7.000;2022-07-29T11:24:14;4.82;;;2.83;;
14883;SDS011;7534;50.762;7.000;2022-07-29T11:27:07;4.75;;;2.33;;
14883;SDS011;7534;50.762;7.000;2022-07-29T11:29:35;3.97;;;2.70;;
14883;SDS011;7534;50.762;7.000;2022-07-29T11:32:17;4.07;;;2.03;;
14883;SDS011;7534;50.762;7.000;2022-07-29T11:34:46;5.07;;;2.63;;
14883;SDS011;7534;50.762;7.000;2022-07-29T11:37:14;4.30;;;2.20;;
14883;SDS011;7534;50.762;7.000;2022-07-29T11:50:12;4.93;;;2.25;;
14883;SDS011;7534;50.762;7.000;2022-07-29T11:52:42;3.40;;;2.10;;
14883;SDS011;7534;50.762;7.000;2022-07-29T11:55:13;3.03;;;1.95;;
14883;SDS011;7534;50.762;7.000;2022-07-29T11:57:48;3.20;;;2.13;;
14883;SDS011;7534;50.762;7.000;2022-07-29T12:00:21;3.97;;;2.30;;
14883;SDS011;7534;50.762;7.000;2022-07-29T12:02:51;4.10;;;2.40;;
14883;SDS011;7534;50.762;7.000;2022-07-29T12:05:17;3.83;;;2.33;;
14883;SDS011;7534;50.762;7.000;2022-07-29T12:07:45;3.53;;;2.70;;
14883;SDS011;7534;50.762;7.000;2022-07-29T12:10:13;3.80;;;2.50;;
14883;SDS011;7534;50.762;7.000;2022-07-29T12:12:39;3.15;;;2.17;;
14883;SDS011;7534;50.762;7.000;2022-07-29T12:15:15;3.15;;;2.28;;
14883;SDS011;7534;50.762;7.000;2022-07-29T12:17:45;3.15;;;2.30;;
14883;SDS011;7534;50.762;7.000;2022-07-29T12:20:12;3.90;;;2.33;;
14883;SDS011;7534;50.762;7.000;2022-07-29T12:22:47;3.22;;;2.10;;
14883;SDS011;7534;50.762;7.000;2022-07-29T12:25:14;2.40;;;2.20;;
14883;SDS011;7534;50.762;7.000;2022-07-29T12:27:42;3.50;;;2.25;;
14883;SDS011;7534;50.762;7.000;2022-07-29T12:30:09;2.38;;;2.10;;
14883;SDS011;7534;50.762;7.000;2022-07-29T12:32:45;3.97;;;2.55;;
14883;SDS011;7534;50.762;7.000;2022-07-29T12:35:14;3.88;;;2.33;;
14883;SDS011;7534;50.762;7.000;2022-07-29T12:37:43;2.72;;;2.30;;
14883;SDS011;7534;50.762;7.000;2022-07-29T12:40:11;2.95;;;2.47;;
14883;SDS011;7534;50.762;7.000;2022-07-29T12:42:41;3.97;;;2.40;;
14883;SDS011;7534;50.762;7.000;2022-07-29T12:45:44;3.85;;;2.30;;
14883;SDS011;7534;50.762;7.000;2022-07-29T12:48:16;4.63;;;2.38;;
14883;SDS011;7534;50.762;7.000;2022-07-29T12:50:53;4.30;;;2.63;;
14883;SDS011;7534;50.762;7.000;2022-07-29T12:53:22;3.50;;;2.50;;
14883;SDS011;7534;50.762;7.000;2022-07-29T12:55:49;2.53;;;2.33;;
14883;SDS011;7534;50.762;7.000;2022-07-29T12:58:30;3.40;;;2.55;;
14883;SDS011;7534;50.762;7.000;2022-07-29T13:01:08;4.00;;;2.20;;
14883;SDS011;7534;50.762;7.000;2022-07-29T13:03:58;4.13;;;2.20;;
14883;SDS011;7534;50.762;7.000;2022-07-29T13:06:30;3.30;;;2.28;;
14883;SDS011;7534;50.762;7.000;2022-07-29T13:09:13;3.92;;;2.20;;
14883;SDS011;7534;50.762;7.000;2022-07-29T13:11:41;4.07;;;2.30;;
14883;SDS011;7534;50.762;7.000;2022-07-29T13:17:00;2.97;;;2.28;;
14883;SDS011;7534;50.762;7.000;2022-07-29T13:22:13;4.20;;;2.20;;
14883;SDS011;7534;50.762;7.000;2022-07-29T13:25:00;3.75;;;2.40;;
14883;SDS011;7534;50.762;7.000;2022-07-29T13:27:28;5.05;;;2.55;;
14883;SDS011;7534;50.762;7.000;2022-07-29T13:29:58;3.22;;;2.33;;
14883;SDS011;7534;50.762;7.000;2022-07-29T13:32:26;5.65;;;2.55;;
14883;SDS011;7534;50.762;7.000;2022-07-29T13:34:55;4.28;;;2.38;;
14883;SDS011;7534;50.762;7.000;2022-07-29T13:37:22;5.00;;;2.42;;
14883;SDS011;7534;50.762;7.000;2022-07-29T13:39:48;5.50;;;2.25;;
14883;SDS011;7534;50.762;7.000;2022-07-29T13:42:14;3.22;;;2.20;;
14883;SDS011;7534;50.762;7.000;2022-07-29T13:44:40;4.47;;;2.28;;
14883;SDS011;7534;50.762;7.000;2022-07-29T13:47:06;2.47;;;2.20;;
14883;SDS011;7534;50.762;7.000;2022-07-29T13:49:32;3.35;;;2.20;;
14883;SDS011;7534;50.762;7.000;2022-07-29T13:51:59;4.50;;;2.20;;
14883;SDS011;7534;50.762;7.000;2022-07-29T13:54:25;4.28;;;2.30;;
14883;SDS011;7534;50.762;7.000;2022-07-29T13:56:51;3.08;;;2.30;;
14883;SDS011;7534;50.762;7.000;2022-07-29T13:59:17;2.55;;;2.30;;
14883;SDS011;7534;50.762;7.000;2022-07-29T14:01:43;3.65;;;2.30;;
14883;SDS011;7534;50.762;7.000;2022-07-29T14:04:09;2.75;;;2.10;;
14883;SDS011;7534;50.762;7.000;2022-07-29T14:06:35;2.83;;;2.20;;
14883;SDS011;7534;50.762;7.000;2022-07-29T14:09:02;3.28;;;2.30;;
14883;SDS011;7534;50.762;7.000;2022-07-29T14:11:33;3.15;;;2.30;;
14883;SDS011;7534;50.762;7.000;2022-07-29T14:16:28;3.28;;;2.65;;
14883;SDS011;7534;50.762;7.000;2022-07-29T14:18:54;4.20;;;2.42;;
14883;SDS011;7534;50.762;7.000;2022-07-29T14:21:19;4.68;;;2.63;;
14883;SDS011;7534;50.762;7.000;2022-07-29T14:23:45;3.55;;;2.70;;
14883;SDS011;7534;50.762;7.000;2022-07-29T14:26:11;5.10;;;2.60;;
14883;SDS011;7534;50.762;7.000;2022-07-29T14:28:36;6.75;;;2.65;;
14883;SDS011;7534;50.762;7.000;2022-07-29T14:31:02;2.67;;;2.40;;
14883;SDS011;7534;50.762;7.000;2022-07-29T14:33:28;5.68;;;3.17;;
14883;SDS011;7534;50.762;7.000;2022-07-29T14:35:54;3.75;;;2.90;;
14883;SDS011;7534;50.762;7.000;2022-07-29T14:38:19;2.63;;;2.42;;
14883;SDS011;7534;50.762;7.000;2022-07-29T14:40:45;5.90;;;2.70;;
14883;SDS011;7534;50.762;7.000;2022-07-29T14:43:12;4.38;;;2.55;;
14883;SDS011;7534;50.762;7.000;2022-07-29T14:45:38;3.15;;;2.60;;
14883;SDS011;7534;50.762;7.000;2022-07-29T14:48:05;3.72;;;2.25;;
14883;SDS011;7534;50.762;7.000;2022-07-29T14:50:31;4.05;;;2.50;;
14883;SDS011;7534;50.762;7.000;2022-07-29T14:52:58;5.35;;;2.83;;
14883;SDS011;7534;50.762;7.000;2022-07-29T14:55:25;3.05;;;2.40;;
14883;SDS011;7534;50.762;7.000;2022-07-29T14:57:51;4.18;;;2.80;;
14883;SDS011;7534;50.762;7.000;2022-07-29T15:00:17;4.00;;;3.00;;
14883;SDS011;7534;50.762;7.000;2022-07-29T15:02:43;3.00;;;2.72;;
14883;SDS011;7534;50.762;7.000;2022-07-29T15:05:09;3.10;;;2.70;;
14883;SDS011;7534;50.762;7.000;2022-07-29T15:07:34;4.38;;;3.17;;
14883;SDS011;7534;50.762;7.000;2022-07-29T15:10:00;3.80;;;2.60;;
14883;SDS011;7534;50.762;7.000;2022-07-29T15:12:27;3.40;;;2.70;;
14883;SDS011;7534;50.762;7.000;2022-07-29T15:14:52;3.40;;;2.80;;
14883;SDS011;7534;50.762;7.000;2022-07-29T15:17:18;3.42;;;2.70;;
14883;SDS011;7534;50.762;7.000;2022-07-29T15:19:45;5.65;;;3.05;;
14883;SDS011;7534;50.762;7.000;2022-07-29T15:22:11;4.60;;;3.03;;
14883;SDS011;7534;50.762;7.000;2022-07-29T15:24:36;5.68;;;2.60;;
14883;SDS011;7534;50.762;7.000;2022-07-29T15:27:02;4.93;;;2.75;;
14883;SDS011;7534;50.762;7.000;2022-07-29T15:29:28;3.60;;;2.95;;
14883;SDS011;7534;50.762;7.000;2022-07-29T15:31:54;5.38;;;2.95;;
14883;SDS011;7534;50.762;7.000;2022-07-29T15:34:19;5.50;;;3.20;;
14883;SDS011;7534;50.762;7.000;2022-07-29T15:36:45;5.00;;;3.03;;
14883;SDS011;7534;50.762;7.000;2022-07-29T15:39:11;4.45;;;3.20;;
14883;SDS011;7534;50.762;7.000;2022-07-29T15:41:37;5.00;;;3.30;;
14883;SDS011;7534;50.762;7.000;2022-07-29T15:44:03;4.05;;;2.80;;
14883;SDS011;7534;50.762;7.000;2022-07-29T15:46:29;5.53;;;3.00;;
14883;SDS011;7534;50.762;7.000;2022-07-29T15:49:13;5.20;;;2.97;;
14883;SDS011;7534;50.762;7.000;2022-07-29T15:51:38;3.17;;;2.50;;
14883;SDS011;7534;50.762;7.000;2022-07-29T15:54:04;3.22;;;2.92;;
14883;SDS011;7534;50.762;7.000;2022-07-29T15:56:30;3.78;;;2.70;;
14883;SDS011;7534;50.762;7.000;2022-07-29T15:58:56;4.97;;;2.70;;
14883;SDS011;7534;50.762;7.000;2022-07-29T16:01:24;5.18;;;2.80;;